LFML 200000Z AUTO 13003KT CAVOK 19/11 Q1025 NOSIG LFML 192330Z AUTO 15004KT CAVOK 19/11 Q1025 NOSIG LFML 192300Z AUTO 02003KT CAVOK 21/10 Q1025 NOSIG LFML 192230Z AUTO 00000KT CAVOK 21/10 Q1025 NOSIG LFML 192200Z AUTO 20001KT CAVOK 22/10 Q1025 NOSIG LFML 192130Z AUTO 16003KT CAVOK 22/10 Q1025 NOSIG LFML 192100Z AUTO 11003KT 070V140 CAVOK 23/10 Q1024 NOSIG LFML 192030Z AUTO VRB03KT CAVOK 22/10 Q1024 NOSIG LFML 192000Z AUTO 15006KT CAVOK 23/10 Q1024 NOSIG LFML 191930Z AUTO 14005KT CAVOK 22/10 Q1024 NOSIG LFML 191900Z AUTO 14009KT CAVOK 24/09 Q1024 NOSIG LFML 191830Z AUTO 15008KT CAVOK 25/09 Q1024 NOSIG LFML 191800Z AUTO 16011KT CAVOK 26/10 Q1024 NOSIG LFML 191730Z AUTO 15014KT CAVOK 26/09 Q1023 BECMG VRB03KT LFML 191700Z AUTO 15011KT CAVOK 27/09 Q1023 TEMPO 18020G30KT LFML 191630Z AUTO 16012KT 9999 4700 NSC 27/09 Q1023 TEMPO 18020G30KT LFML 191600Z AUTO 17014KT 9999 4900 NSC 28/09 Q1023 TEMPO 18020G30KT LFML 191530Z AUTO 16013KT 9999 4700 NSC 29/09 Q1023 TEMPO 18020G30KT LFML 191500Z AUTO 18014KT 9999 4400 NSC 29/09 Q1023 TEMPO 18020G30KT LFML 191430Z AUTO 16016KT 9999 4200 NSC 30/08 Q1023 TEMPO 18020G30KT LFML 191400Z AUTO 16017KT 9999 4400 NSC 30/07 Q1023 TEMPO 18015G25KT LFML 191330Z AUTO 17019KT 9999 4900 NSC 30/07 Q1023 TEMPO 18015G25KT LFML 191300Z AUTO 17021KT CAVOK 30/07 Q1023 TEMPO 18015G25KT LFML 191230Z AUTO 17015KT 140V200 CAVOK 30/09 Q1023 TEMPO 18015G25KT LFML 191200Z AUTO 20014KT CAVOK 30/12 Q1023 TEMPO 18015G25KT LFML 191130Z AUTO 20013KT CAVOK 28/14 Q1023 TEMPO 18015G25KT LFML 191100Z AUTO 27007KT CAVOK 27/16 Q1024 TEMPO 18015G25KT LFML 191030Z AUTO 28008KT CAVOK 26/16 Q1024 TEMPO 18015G25KT LFML 191000Z AUTO 29006KT CAVOK 26/17 Q1024 TEMPO 18015G25KT LFML 190930Z AUTO 28005KT 250V320 CAVOK 26/17 Q1024 TEMPO 18015G25KT LFML 190900Z AUTO 26006KT CAVOK 25/17 Q1024 BECMG 18012KT LFML 190830Z AUTO 29006KT CAVOK 24/18 Q1024 BECMG 18012KT LFML 190800Z AUTO 29005KT CAVOK 23/17 Q1024 NOSIG LFML 190730Z AUTO 27007KT CAVOK 22/19 Q1024 NOSIG LFML 190700Z AUTO VRB03KT CAVOK 22/17 Q1023 NOSIG LFML 190630Z AUTO VRB03KT CAVOK 22/18 Q1023 NOSIG LFML 190600Z AUTO 15003KT CAVOK 21/17 Q1023 TEMPO 4000 BR BKN005 LFML 190530Z AUTO 14005KT 8000 FEW008 19/17 Q1023 TEMPO 4000 BR BKN005 LFML 190500Z AUTO 14005KT 7000 FEW008 17/16 Q1023 TEMPO 4000 BR VV/// LFML 190430Z AUTO 13005KT 6000 NSC 17/16 Q1022 TEMPO 4000 BR VV/// LFML 190400Z AUTO 14005KT 6000 NSC 16/15 Q1022 TEMPO 0500 FG VV/// LFML 190330Z AUTO VRB02KT 7000 NSC 17/16 Q1022 TEMPO 0500 FG VV/// LFML 190300Z AUTO VRB02KT 7000 NSC 18/16 Q1022 TEMPO 0500 FG VV/// LFML 190230Z AUTO VRB02KT 7000 NSC 18/16 Q1022 TEMPO 0500 FG VV/// LFML 190200Z AUTO 08006KT 8000 NSC 19/17 Q1021 TEMPO 0500 FG VV/// LFML 190130Z AUTO 13005KT 8000 NSC 18/16 Q1021 TEMPO 0500 FG VV/// LFML 190100Z AUTO 13003KT CAVOK 18/16 Q1021 TEMPO 0500 FG VV/// LFML 190030Z AUTO 12004KT CAVOK 17/15 Q1021 TEMPO 0500 FG VV/// LFML 190000Z AUTO 11002KT CAVOK 18/16 Q1021 TEMPO 0500 FG VV/// LFML 182330Z AUTO 14003KT CAVOK 18/17 Q1021 TEMPO 0500 FG VV/// LFML 182300Z AUTO 20005KT CAVOK 19/17 Q1021 TEMPO 0500 FG VV/// LFML 182230Z AUTO 19005KT CAVOK 19/17 Q1021 TEMPO 0500 FG VV/// LFML 182200Z AUTO 20003KT CAVOK 19/17 Q1021 TEMPO 2000 BR BKN005 LFML 182130Z AUTO 13004KT CAVOK 19/17 Q1021 TEMPO 2000 BR BKN005 LFML 182100Z AUTO 11004KT CAVOK 19/17 Q1021 NOSIG LFML 182030Z AUTO 17002KT CAVOK 20/17 Q1021 NOSIG LFML 182000Z AUTO VRB02KT CAVOK 20/17 Q1020 NOSIG LFML 181930Z AUTO 19007KT CAVOK 20/17 Q1020 NOSIG LFML 181900Z AUTO 19007KT CAVOK 21/17 Q1020 NOSIG LFML 181830Z AUTO 20008KT CAVOK 22/17 Q1019 NOSIG LFML 181800Z AUTO 18006KT 150V220 CAVOK 23/17 Q1019 NOSIG LFML 181730Z AUTO 15007KT 110V170 CAVOK 23/17 Q1019 NOSIG LFML 181700Z AUTO 19009KT CAVOK 24/17 Q1019 NOSIG LFML 181630Z AUTO 17008KT 120V200 CAVOK 24/17 Q1019 NOSIG LFML 181600Z AUTO 16009KT 130V200 CAVOK 24/17 Q1019 NOSIG LFML 181530Z AUTO 18012KT CAVOK 24/17 Q1018 NOSIG LFML 181500Z AUTO 18012KT CAVOK 24/17 Q1018 NOSIG LFML 181430Z AUTO 18014KT CAVOK 24/18 Q1018 NOSIG LFML 181400Z AUTO 18012KT CAVOK 25/18 Q1018 NOSIG LFML 181330Z AUTO 17012KT CAVOK 26/18 Q1018 NOSIG LFML 181300Z AUTO 18013KT CAVOK 26/17 Q1019 NOSIG LFML 181230Z AUTO 19013KT CAVOK 25/17 Q1018 NOSIG

METAR Messwerte "MARSEILLE/MARIGN" LFML

Zurück zur Übersicht

Ortsname
Ländercode / m ü. NN
Zeit Temperatur Taupunkt Rel.
Luftfeuchte
Luftdruck:
Altimeter
NN
Station
Wind in Beaufort
(Knoten)
Sichtweite
(Meter)
Wolken
(Meter über Grund)
Wettererscheinung
MARSEILLE/MARIGN
FR 20
Fr 20.05. 02:00191160 %1025
1025
1023
SO 2 (3)>= 10000Nicht signifikant 
MARSEILLE/MARIGN
FR 20
Fr 20.05. 01:30191160 %1025
1025
1023
SSO 2 (4)>= 10000Nicht signifikant 
MARSEILLE/MARIGN
FR 20
Fr 20.05. 01:00211049 %1025
1025
1023
NNO 2 (3)>= 10000Nicht signifikant 
MARSEILLE/MARIGN
FR 20
Fr 20.05. 00:30211049 %1025
1025
1023
Windstill>= 10000Nicht signifikant 
MARSEILLE/MARIGN
FR 20
Fr 20.05. 00:00221046 %1025
1025
1023
SSW 1 (1)>= 10000Nicht signifikant 
MARSEILLE/MARIGN
FR 20
Do 19.05. 23:30221046 %1025
1025
1023
SSO 2 (3)>= 10000Nicht signifikant 
MARSEILLE/MARIGN
FR 20
Do 19.05. 23:00231044 %1024
1024
1022
OSO 2 (3)
ONO - SO
>= 10000Nicht signifikant 
MARSEILLE/MARIGN
FR 20
Do 19.05. 22:30221046 %1024
1024
1022
Uml 2 (3)>= 10000Nicht signifikant 
MARSEILLE/MARIGN
FR 20
Do 19.05. 22:00231044 %1024
1024
1022
SSO 2 (6)>= 10000Nicht signifikant 
MARSEILLE/MARIGN
FR 20
Do 19.05. 21:30221046 %1024
1024
1022
SO 2 (5)>= 10000Nicht signifikant 
MARSEILLE/MARIGN
FR 20
Do 19.05. 21:0024938 %1024
1024
1022
SO 3 (9)>= 10000Nicht signifikant 
MARSEILLE/MARIGN
FR 20
Do 19.05. 20:3025936 %1024
1024
1022
SSO 3 (8)>= 10000Nicht signifikant 
MARSEILLE/MARIGN
FR 20
Do 19.05. 20:00261037 %1024
1024
1022
SSO 4 (11)>= 10000Nicht signifikant 
MARSEILLE/MARIGN
FR 20
Do 19.05. 19:3026934 %1023
1023
1021
SSO 4 (14)
Bald Übergang zu:
Uml 2 (3)
>= 10000Nicht signifikant 
MARSEILLE/MARIGN
FR 20
Do 19.05. 19:0027932 %1023
1023
1021
SSO 4 (11)
Bald zeitweise:
S 5 (20) - 7 (30)
>= 10000Nicht signifikant 
MARSEILLE/MARIGN
FR 20
Do 19.05. 18:3027932 %1023
1023
1021
SSO 4 (12)
Bald zeitweise:
S 5 (20) - 7 (30)
>= 10000Nicht signifikant 
MARSEILLE/MARIGN
FR 20
Do 19.05. 18:0028930 %1023
1023
1021
S 4 (14)
Bald zeitweise:
S 5 (20) - 7 (30)
>= 10000Nicht signifikant 
MARSEILLE/MARIGN
FR 20
Do 19.05. 17:3029929 %1023
1023
1021
SSO 4 (13)
Bald zeitweise:
S 5 (20) - 7 (30)
>= 10000Nicht signifikant 
MARSEILLE/MARIGN
FR 20
Do 19.05. 17:0029929 %1023
1023
1021
S 4 (14)
Bald zeitweise:
S 5 (20) - 7 (30)
>= 10000Nicht signifikant 
MARSEILLE/MARIGN
FR 20
Do 19.05. 16:3030825 %1023
1023
1021
SSO 5 (16)
Bald zeitweise:
S 5 (20) - 7 (30)
>= 10000Nicht signifikant 
MARSEILLE/MARIGN
FR 20
Do 19.05. 16:0030724 %1023
1023
1021
SSO 5 (17)
Bald zeitweise:
S 4 (15) - 6 (25)
>= 10000Nicht signifikant 
MARSEILLE/MARIGN
FR 20
Do 19.05. 15:3030724 %1023
1023
1021
S 5 (19)
Bald zeitweise:
S 4 (15) - 6 (25)
>= 10000Nicht signifikant 
MARSEILLE/MARIGN
FR 20
Do 19.05. 15:0030724 %1023
1023
1021
S 6 (21)
Bald zeitweise:
S 4 (15) - 6 (25)
>= 10000Nicht signifikant 
MARSEILLE/MARIGN
FR 20
Do 19.05. 14:3030927 %1023
1023
1021
S 4 (15)
SO - SSW
Bald zeitweise:
S 4 (15) - 6 (25)
>= 10000Nicht signifikant 
MARSEILLE/MARIGN
FR 20
Do 19.05. 14:00301233 %1023
1023
1021
SSW 4 (14)
Bald zeitweise:
S 4 (15) - 6 (25)
>= 10000Nicht signifikant 
MARSEILLE/MARIGN
FR 20
Do 19.05. 13:30281442 %1023
1023
1021
SSW 4 (13)
Bald zeitweise:
S 4 (15) - 6 (25)
>= 10000Nicht signifikant 
MARSEILLE/MARIGN
FR 20
Do 19.05. 13:00271651 %1024
1024
1022
W 3 (7)
Bald zeitweise:
S 4 (15) - 6 (25)
>= 10000Nicht signifikant 
MARSEILLE/MARIGN
FR 20
Do 19.05. 12:30261654 %1024
1024
1022
W 3 (8)
Bald zeitweise:
S 4 (15) - 6 (25)
>= 10000Nicht signifikant 
MARSEILLE/MARIGN
FR 20
Do 19.05. 12:00261758 %1024
1024
1022
WNW 2 (6)
Bald zeitweise:
S 4 (15) - 6 (25)
>= 10000Nicht signifikant 
MARSEILLE/MARIGN
FR 20
Do 19.05. 11:30261758 %1024
1024
1022
W 2 (5)
WSW - NW
Bald zeitweise:
S 4 (15) - 6 (25)
>= 10000Nicht signifikant 
MARSEILLE/MARIGN
FR 20
Do 19.05. 11:00251761 %1024
1024
1022
W 2 (6)
Bald Übergang zu:
S 4 (12)
>= 10000Nicht signifikant 
MARSEILLE/MARIGN
FR 20
Do 19.05. 10:30241869 %1024
1024
1022
WNW 2 (6)
Bald Übergang zu:
S 4 (12)
>= 10000Nicht signifikant 
MARSEILLE/MARIGN
FR 20
Do 19.05. 10:00231769 %1024
1024
1022
WNW 2 (5)>= 10000Nicht signifikant 
MARSEILLE/MARIGN
FR 20
Do 19.05. 09:30221983 %1024
1024
1022
W 3 (7)>= 10000Nicht signifikant 
MARSEILLE/MARIGN
FR 20
Do 19.05. 09:00221773 %1023
1023
1021
Uml 2 (3)>= 10000Nicht signifikant 
MARSEILLE/MARIGN
FR 20
Do 19.05. 08:30221878 %1023
1023
1021
Uml 2 (3)>= 10000Nicht signifikant 
MARSEILLE/MARIGN
FR 20
Do 19.05. 08:00211778 %1023
1023
1021
SSO 2 (3)>= 10000
Bald zeitweise: 4000
Nicht signifikant Bald zeitweise: Nebeldunst
MARSEILLE/MARIGN
FR 20
Do 19.05. 07:30191788 %1023
1023
1021
SO 2 (5)8000
Bald zeitweise: 4000
Leicht bewölkt (240) Bald zeitweise: Nebeldunst
MARSEILLE/MARIGN
FR 20
Do 19.05. 07:00171694 %1023
1023
1021
SO 2 (5)7000
Bald zeitweise: 4000
Leicht bewölkt (240) Bald zeitweise: Nebeldunst
MARSEILLE/MARIGN
FR 20
Do 19.05. 06:30171694 %1022
1022
1020
SO 2 (5)6000
Bald zeitweise: 4000
Nicht signifikant Bald zeitweise: Nebeldunst
MARSEILLE/MARIGN
FR 20
Do 19.05. 06:00161594 %1022
1022
1020
SO 2 (5)6000
Bald zeitweise: 500
Nicht signifikant Bald zeitweise: Nebel
MARSEILLE/MARIGN
FR 20
Do 19.05. 05:30171694 %1022
1022
1020
Uml 1 (2)7000
Bald zeitweise: 500
Nicht signifikant Bald zeitweise: Nebel
MARSEILLE/MARIGN
FR 20
Do 19.05. 05:00181688 %1022
1022
1020
Uml 1 (2)7000
Bald zeitweise: 500
Nicht signifikant Bald zeitweise: Nebel
MARSEILLE/MARIGN
FR 20
Do 19.05. 04:30181688 %1022
1022
1020
Uml 1 (2)7000
Bald zeitweise: 500
Nicht signifikant Bald zeitweise: Nebel
MARSEILLE/MARIGN
FR 20
Do 19.05. 04:00191788 %1021
1021
1019
O 2 (6)8000
Bald zeitweise: 500
Nicht signifikant Bald zeitweise: Nebel
MARSEILLE/MARIGN
FR 20
Do 19.05. 03:30181688 %1021
1021
1019
SO 2 (5)8000
Bald zeitweise: 500
Nicht signifikant Bald zeitweise: Nebel
MARSEILLE/MARIGN
FR 20
Do 19.05. 03:00181688 %1021
1021
1019
SO 2 (3)>= 10000
Bald zeitweise: 500
Nicht signifikant Bald zeitweise: Nebel
MARSEILLE/MARIGN
FR 20
Do 19.05. 02:30171588 %1021
1021
1019
OSO 2 (4)>= 10000
Bald zeitweise: 500
Nicht signifikant Bald zeitweise: Nebel
MARSEILLE/MARIGN
FR 20
Do 19.05. 02:00181688 %1021
1021
1019
OSO 1 (2)>= 10000
Bald zeitweise: 500
Nicht signifikant Bald zeitweise: Nebel
MARSEILLE/MARIGN
FR 20
Do 19.05. 01:30181794 %1021
1021
1019
SO 2 (3)>= 10000
Bald zeitweise: 500
Nicht signifikant Bald zeitweise: Nebel
MARSEILLE/MARIGN
FR 20
Do 19.05. 01:00191788 %1021
1021
1019
SSW 2 (5)>= 10000
Bald zeitweise: 500
Nicht signifikant Bald zeitweise: Nebel
MARSEILLE/MARIGN
FR 20
Do 19.05. 00:30191788 %1021
1021
1019
S 2 (5)>= 10000
Bald zeitweise: 500
Nicht signifikant Bald zeitweise: Nebel
MARSEILLE/MARIGN
FR 20
Do 19.05. 00:00191788 %1021
1021
1019
SSW 2 (3)>= 10000
Bald zeitweise: 2000
Nicht signifikant Bald zeitweise: Nebeldunst
MARSEILLE/MARIGN
FR 20
Mi 18.05. 23:30191788 %1021
1021
1019
SO 2 (4)>= 10000
Bald zeitweise: 2000
Nicht signifikant Bald zeitweise: Nebeldunst
MARSEILLE/MARIGN
FR 20
Mi 18.05. 23:00191788 %1021
1021
1019
OSO 2 (4)>= 10000Nicht signifikant 
MARSEILLE/MARIGN
FR 20
Mi 18.05. 22:30201783 %1021
1021
1019
S 1 (2)>= 10000Nicht signifikant 
MARSEILLE/MARIGN
FR 20
Mi 18.05. 22:00201783 %1020
1020
1018
Uml 1 (2)>= 10000Nicht signifikant 
MARSEILLE/MARIGN
FR 20
Mi 18.05. 21:30201783 %1020
1020
1018
S 3 (7)>= 10000Nicht signifikant 
MARSEILLE/MARIGN
FR 20
Mi 18.05. 21:00211778 %1020
1020
1018
S 3 (7)>= 10000Nicht signifikant 
MARSEILLE/MARIGN
FR 20
Mi 18.05. 20:30221773 %1019
1019
1017
SSW 3 (8)>= 10000Nicht signifikant 
MARSEILLE/MARIGN
FR 20
Mi 18.05. 20:00231769 %1019
1019
1017
S 2 (6)
SSO - SW
>= 10000Nicht signifikant 
MARSEILLE/MARIGN
FR 20
Mi 18.05. 19:30231769 %1019
1019
1017
SSO 3 (7)
OSO - S
>= 10000Nicht signifikant 
MARSEILLE/MARIGN
FR 20
Mi 18.05. 19:00241765 %1019
1019
1017
S 3 (9)>= 10000Nicht signifikant 
MARSEILLE/MARIGN
FR 20
Mi 18.05. 18:30241765 %1019
1019
1017
S 3 (8)
OSO - SSW
>= 10000Nicht signifikant 
MARSEILLE/MARIGN
FR 20
Mi 18.05. 18:00241765 %1019
1019
1017
SSO 3 (9)
SO - SSW
>= 10000Nicht signifikant 
MARSEILLE/MARIGN
FR 20
Mi 18.05. 17:30241765 %1018
1018
1016
S 4 (12)>= 10000Nicht signifikant 
MARSEILLE/MARIGN
FR 20
Mi 18.05. 17:00241765 %1018
1018
1016
S 4 (12)>= 10000Nicht signifikant 
MARSEILLE/MARIGN
FR 20
Mi 18.05. 16:30241869 %1018
1018
1016
S 4 (14)>= 10000Nicht signifikant 
MARSEILLE/MARIGN
FR 20
Mi 18.05. 16:00251865 %1018
1018
1016
S 4 (12)>= 10000Nicht signifikant 
MARSEILLE/MARIGN
FR 20
Mi 18.05. 15:30261861 %1018
1018
1016
S 4 (12)>= 10000Nicht signifikant 
MARSEILLE/MARIGN
FR 20
Mi 18.05. 15:00261758 %1019
1019
1017
S 4 (13)>= 10000Nicht signifikant 
MARSEILLE/MARIGN
FR 20
Mi 18.05. 14:30251761 %1018
1018
1016
S 4 (13)>= 10000Nicht signifikant 

Altimeter: Einstellung am Altimeter (Höhenmesser), die Höhe 0 muss auf diesen Luftdruckwert zeigen, damit das Gerät die Stationshöhe richtig anzeigt.

NN: Luftdruck reduziert auf "Normal Null", auf Meereshöhe, dieser von der Temperatur abhängige Wert wird bisweilen unkorrekt einfach als "Luftdruck" bezeichnet. Eigentlich nur eine fiktive Größe, die es erlaubt, Stationen auf unterschiedlichen Höhen miteinander zu vergleichen.

Station: Realer Luftdruck an der Station.